Thorco Crystal — V2BP9 — position and weather

sailwx.info

Track history (hours):
 
Tides and Currents Weather Stations Pressure Air Temp Water Temp Dewpoint Dewpoint Depression Visibility Wind Speed Wind Dir Waves Ship Positions

Thorco Crystal

Last reported at 2014-Nov-20 14:32 UTC. Time now 2014-Nov-23 16:02 UTC.
Position S 28°46' E 032°51'.

Length 145 m; draft 5.9 m.

Type: Cargo ship. MMSI: 304736000.

Date/timePositionNaut miles runAvg speedWind from/ knotsBaromVisibWave heightAir tempDewpointWater temp
2014-Nov-20 14:32S 28°46' E 032°51'6712.6
2014-Nov-20 09:11S 29°25' E 031°48'812.6
2014-Nov-20 08:33S 29°29' E 031°40'1313.1
2014-Nov-20 07:33S 29°37' E 031°28'1413.5
2014-Nov-20 06:34S 29°44' E 031°15'1312.8
2014-Nov-20 05:33S 29°52' E 031°03'1 1.1
2014-Nov-20 04:33S 29°52' E 031°02'0 0.0
2014-Nov-20 03:30S 29°52' E 031°02'0 0.0
2014-Nov-20 02:30S 29°52' E 031°02'0 0.0
2014-Nov-20 01:30S 29°52' E 031°02'0 0.0
2014-Nov-20 00:30S 29°52' E 031°02'0 0.0
2014-Nov-19 23:30S 29°52' E 031°02'0 0.0
2014-Nov-19 22:30S 29°52' E 031°02'0 0.0
2014-Nov-19 21:30S 29°52' E 031°02'0 0.0
2014-Nov-19 20:30S 29°52' E 031°02'0 0.0
2014-Nov-19 19:30S 29°52' E 031°02'0 0.0
2014-Nov-19 18:30S 29°52' E 031°02'0 0.0
2014-Nov-19 17:24S 29°52' E 031°02'0 0.0
2014-Nov-19 16:30S 29°52' E 031°02'0 0.0
2014-Nov-19 15:33S 29°52' E 031°02'0 0.0
2014-Nov-19 14:33S 29°52' E 031°02'0 0.0
2014-Nov-19 13:33S 29°52' E 031°02'0 0.0
2014-Nov-19 12:15S 29°52' E 031°02'0 0.0
2014-Nov-19 11:33S 29°52' E 031°02'0 0.0
2014-Nov-19 10:21S 29°52' E 031°02'0 0.0
2014-Nov-19 09:33S 29°52' E 031°02'4 3.9
2014-Nov-19 08:33S 29°50' E 031°05'3 3.2
2014-Nov-19 07:33S 29°50' E 031°09'4 4.4
2014-Nov-19 06:33S 29°54' E 031°10'8 8.5
2014-Nov-19 05:33S 30°02' E 031°11'1211.7
2014-Nov-19 04:33S 30°14' E 031°07'  
2014-Nov-16 06:09S 34°17' E 018°06'6 9.6
2014-Nov-16 05:33S 34°13' E 018°02'  
Track history (hours):
 
Tides and Currents Weather Stations Pressure Air Temp Water Temp Dewpoint Dewpoint Depression Visibility Wind Speed Wind Dir Waves Ship Positions

Thorco Crystal

Last reported at 2014-Nov-20 14:32 UTC. Time now 2014-Nov-23 16:02 UTC.
Position S 28°46' E 032°51'.

Length 145 m; draft 5.9 m.

Type: Cargo ship. MMSI: 304736000.

Date/timePositionNaut miles runAvg speedWind from/ knotsBaromVisibWave heightAir tempDewpointWater temp
2014-Nov-20 14:32S 28°46' E 032°51'6712.6
2014-Nov-20 09:11S 29°25' E 031°48'812.6
2014-Nov-20 08:33S 29°29' E 031°40'1313.1
2014-Nov-20 07:33S 29°37' E 031°28'1413.5
2014-Nov-20 06:34S 29°44' E 031°15'1312.8
2014-Nov-20 05:33S 29°52' E 031°03'1 1.1
2014-Nov-20 04:33S 29°52' E 031°02'0 0.0
2014-Nov-20 03:30S 29°52' E 031°02'0 0.0
2014-Nov-20 02:30S 29°52' E 031°02'0 0.0
2014-Nov-20 01:30S 29°52' E 031°02'0 0.0
2014-Nov-20 00:30S 29°52' E 031°02'0 0.0
2014-Nov-19 23:30S 29°52' E 031°02'0 0.0
2014-Nov-19 22:30S 29°52' E 031°02'0 0.0
2014-Nov-19 21:30S 29°52' E 031°02'0 0.0
2014-Nov-19 20:30S 29°52' E 031°02'0 0.0
2014-Nov-19 19:30S 29°52' E 031°02'0 0.0
2014-Nov-19 18:30S 29°52' E 031°02'0 0.0
2014-Nov-19 17:24S 29°52' E 031°02'0 0.0
2014-Nov-19 16:30S 29°52' E 031°02'0 0.0
2014-Nov-19 15:33S 29°52' E 031°02'0 0.0
2014-Nov-19 14:33S 29°52' E 031°02'0 0.0
2014-Nov-19 13:33S 29°52' E 031°02'0 0.0
2014-Nov-19 12:15S 29°52' E 031°02'0 0.0
2014-Nov-19 11:33S 29°52' E 031°02'0 0.0
2014-Nov-19 10:21S 29°52' E 031°02'0 0.0
2014-Nov-19 09:33S 29°52' E 031°02'4 3.9
2014-Nov-19 08:33S 29°50' E 031°05'3 3.2
2014-Nov-19 07:33S 29°50' E 031°09'4 4.4
2014-Nov-19 06:33S 29°54' E 031°10'8 8.5
2014-Nov-19 05:33S 30°02' E 031°11'1211.7
2014-Nov-19 04:33S 30°14' E 031°07'  
2014-Nov-16 06:09S 34°17' E 018°06'6 9.6
2014-Nov-16 05:33S 34°13' E 018°02'  

Dump ship's entire track history